sensor_id;sensor_type;location;lat;lon;timestamp;temperature;humidity
4509;DHT22;2267;48.816;9.230;2023-12-07T00:00:11;5.90;99.90
4509;DHT22;2267;48.816;9.230;2023-12-07T00:02:38;5.90;99.90
4509;DHT22;2267;48.816;9.230;2023-12-07T00:05:05;5.80;99.90
4509;DHT22;2267;48.816;9.230;2023-12-07T00:07:32;5.80;99.90
4509;DHT22;2267;48.816;9.230;2023-12-07T00:09:59;5.90;99.90
4509;DHT22;2267;48.816;9.230;2023-12-07T00:14:54;5.90;99.90
4509;DHT22;2267;48.816;9.230;2023-12-07T00:17:21;5.90;99.90
4509;DHT22;2267;48.816;9.230;2023-12-07T00:19:50;5.90;99.90
4509;DHT22;2267;48.816;9.230;2023-12-07T00:22:17;5.90;99.90
4509;DHT22;2267;48.816;9.230;2023-12-07T00:24:44;5.90;99.90
4509;DHT22;2267;48.816;9.230;2023-12-07T00:27:11;5.90;99.90
4509;DHT22;2267;48.816;9.230;2023-12-07T00:29:38;5.90;99.90
4509;DHT22;2267;48.816;9.230;2023-12-07T00:32:05;5.90;99.90
4509;DHT22;2267;48.816;9.230;2023-12-07T00:34:32;5.90;99.90
4509;DHT22;2267;48.816;9.230;2023-12-07T00:39:27;5.90;99.90
4509;DHT22;2267;48.816;9.230;2023-12-07T00:46:49;5.90;99.90
4509;DHT22;2267;48.816;9.230;2023-12-07T00:49:16;5.90;99.90
4509;DHT22;2267;48.816;9.230;2023-12-07T00:51:43;5.90;99.90
4509;DHT22;2267;48.816;9.230;2023-12-07T00:54:11;5.90;99.90
4509;DHT22;2267;48.816;9.230;2023-12-07T00:56:38;5.90;99.90
4509;DHT22;2267;48.816;9.230;2023-12-07T00:59:05;5.90;99.90
4509;DHT22;2267;48.816;9.230;2023-12-07T01:01:32;5.80;99.90
4509;DHT22;2267;48.816;9.230;2023-12-07T01:03:59;5.80;99.90
4509;DHT22;2267;48.816;9.230;2023-12-07T01:08:55;5.90;99.90
4509;DHT22;2267;48.816;9.230;2023-12-07T01:11:22;5.80;99.90
4509;DHT22;2267;48.816;9.230;2023-12-07T01:13:49;5.90;99.90
4509;DHT22;2267;48.816;9.230;2023-12-07T01:16:16;5.90;99.90
4509;DHT22;2267;48.816;9.230;2023-12-07T01:18:43;5.80;99.90
4509;DHT22;2267;48.816;9.230;2023-12-07T01:21:11;5.80;99.90
4509;DHT22;2267;48.816;9.230;2023-12-07T01:26:06;5.80;99.90
4509;DHT22;2267;48.816;9.230;2023-12-07T01:28:34;5.80;99.90
4509;DHT22;2267;48.816;9.230;2023-12-07T01:31:00;5.80;99.90
4509;DHT22;2267;48.816;9.230;2023-12-07T01:33:27;5.80;99.90
4509;DHT22;2267;48.816;9.230;2023-12-07T01:35:54;5.80;99.90
4509;DHT22;2267;48.816;9.230;2023-12-07T01:38:22;5.80;99.90
4509;DHT22;2267;48.816;9.230;2023-12-07T01:40:48;5.80;99.90
4509;DHT22;2267;48.816;9.230;2023-12-07T01:43:15;5.70;99.90
4509;DHT22;2267;48.816;9.230;2023-12-07T01:45:43;5.80;99.90
4509;DHT22;2267;48.816;9.230;2023-12-07T01:48:10;5.80;99.90
4509;DHT22;2267;48.816;9.230;2023-12-07T01:50:37;5.70;99.90
4509;DHT22;2267;48.816;9.230;2023-12-07T01:53:04;5.70;99.90
4509;DHT22;2267;48.816;9.230;2023-12-07T01:55:35;5.70;99.90
4509;DHT22;2267;48.816;9.230;2023-12-07T01:58:04;5.70;99.90
4509;DHT22;2267;48.816;9.230;2023-12-07T02:00:31;5.80;99.90
4509;DHT22;2267;48.816;9.230;2023-12-07T02:03:00;5.80;99.90
4509;DHT22;2267;48.816;9.230;2023-12-07T02:05:27;5.80;99.90
4509;DHT22;2267;48.816;9.230;2023-12-07T02:12:50;5.80;99.90
4509;DHT22;2267;48.816;9.230;2023-12-07T02:15:18;5.80;99.90
4509;DHT22;2267;48.816;9.230;2023-12-07T02:20:33;5.80;99.90
4509;DHT22;2267;48.816;9.230;2023-12-07T02:23:04;5.70;99.90
4509;DHT22;2267;48.816;9.230;2023-12-07T02:25:48;5.70;99.90
4509;DHT22;2267;48.816;9.230;2023-12-07T02:28:18;5.70;99.90
4509;DHT22;2267;48.816;9.230;2023-12-07T02:30:45;5.70;99.90
4509;DHT22;2267;48.816;9.230;2023-12-07T02:33:12;5.80;99.90
4509;DHT22;2267;48.816;9.230;2023-12-07T02:35:39;5.70;99.90
4509;DHT22;2267;48.816;9.230;2023-12-07T02:38:08;5.70;99.90
4509;DHT22;2267;48.816;9.230;2023-12-07T02:40:35;5.70;99.90
4509;DHT22;2267;48.816;9.230;2023-12-07T02:43:03;5.70;99.90
4509;DHT22;2267;48.816;9.230;2023-12-07T02:45:31;5.60;99.90
4509;DHT22;2267;48.816;9.230;2023-12-07T02:47:59;5.60;99.90
4509;DHT22;2267;48.816;9.230;2023-12-07T02:50:26;5.60;99.90
4509;DHT22;2267;48.816;9.230;2023-12-07T02:52:53;5.60;99.90
4509;DHT22;2267;48.816;9.230;2023-12-07T02:55:20;5.60;99.90
4509;DHT22;2267;48.816;9.230;2023-12-07T02:57:47;5.60;99.90
4509;DHT22;2267;48.816;9.230;2023-12-07T03:00:14;5.50;99.90
4509;DHT22;2267;48.816;9.230;2023-12-07T03:02:41;5.50;99.90
4509;DHT22;2267;48.816;9.230;2023-12-07T03:05:08;5.50;99.90
4509;DHT22;2267;48.816;9.230;2023-12-07T03:07:35;5.40;99.90
4509;DHT22;2267;48.816;9.230;2023-12-07T03:10:02;5.40;99.90
4509;DHT22;2267;48.816;9.230;2023-12-07T03:12:30;5.40;99.90
4509;DHT22;2267;48.816;9.230;2023-12-07T03:14:57;5.40;99.90
4509;DHT22;2267;48.816;9.230;2023-12-07T03:17:24;5.40;99.90
4509;DHT22;2267;48.816;9.230;2023-12-07T03:19:51;5.30;99.90
4509;DHT22;2267;48.816;9.230;2023-12-07T03:22:18;5.40;99.90
4509;DHT22;2267;48.816;9.230;2023-12-07T03:24:50;5.30;99.90
4509;DHT22;2267;48.816;9.230;2023-12-07T03:27:17;5.30;99.90
4509;DHT22;2267;48.816;9.230;2023-12-07T03:29:44;5.30;99.90
4509;DHT22;2267;48.816;9.230;2023-12-07T03:32:11;5.20;99.90
4509;DHT22;2267;48.816;9.230;2023-12-07T03:34:38;5.30;99.90
4509;DHT22;2267;48.816;9.230;2023-12-07T03:37:04;5.20;99.90
4509;DHT22;2267;48.816;9.230;2023-12-07T03:39:32;5.20;99.90
4509;DHT22;2267;48.816;9.230;2023-12-07T03:41:59;5.20;99.90
4509;DHT22;2267;48.816;9.230;2023-12-07T03:44:26;5.10;99.90
4509;DHT22;2267;48.816;9.230;2023-12-07T03:46:54;5.10;99.90
4509;DHT22;2267;48.816;9.230;2023-12-07T03:49:21;6.70;99.90
4509;DHT22;2267;48.816;9.230;2023-12-07T03:51:48;5.10;99.90
4509;DHT22;2267;48.816;9.230;2023-12-07T03:54:15;5.10;99.90
4509;DHT22;2267;48.816;9.230;2023-12-07T03:56:42;5.10;99.90
4509;DHT22;2267;48.816;9.230;2023-12-07T03:59:09;5.00;99.90
4509;DHT22;2267;48.816;9.230;2023-12-07T04:01:36;5.00;99.90
4509;DHT22;2267;48.816;9.230;2023-12-07T04:04:03;4.90;99.90
4509;DHT22;2267;48.816;9.230;2023-12-07T04:06:31;4.90;99.90
4509;DHT22;2267;48.816;9.230;2023-12-07T04:08:58;4.90;99.90
4509;DHT22;2267;48.816;9.230;2023-12-07T04:11:25;5.00;99.90
4509;DHT22;2267;48.816;9.230;2023-12-07T04:13:52;4.90;99.90
4509;DHT22;2267;48.816;9.230;2023-12-07T04:16:19;4.90;99.90
4509;DHT22;2267;48.816;9.230;2023-12-07T04:18:46;4.90;99.90
4509;DHT22;2267;48.816;9.230;2023-12-07T04:21:13;4.90;99.90
4509;DHT22;2267;48.816;9.230;2023-12-07T04:23:40;4.90;99.90
4509;DHT22;2267;48.816;9.230;2023-12-07T04:26:07;4.80;99.90
4509;DHT22;2267;48.816;9.230;2023-12-07T04:28:34;4.80;99.90
4509;DHT22;2267;48.816;9.230;2023-12-07T04:31:01;4.80;99.90
4509;DHT22;2267;48.816;9.230;2023-12-07T04:33:28;4.80;99.90
4509;DHT22;2267;48.816;9.230;2023-12-07T04:35:55;4.80;99.90
4509;DHT22;2267;48.816;9.230;2023-12-07T04:38:22;4.80;99.90
4509;DHT22;2267;48.816;9.230;2023-12-07T04:40:48;4.70;99.90
4509;DHT22;2267;48.816;9.230;2023-12-07T04:43:15;4.70;99.90
4509;DHT22;2267;48.816;9.230;2023-12-07T04:45:43;4.70;99.90
4509;DHT22;2267;48.816;9.230;2023-12-07T04:48:09;4.70;99.90
4509;DHT22;2267;48.816;9.230;2023-12-07T04:50:37;4.60;99.90
4509;DHT22;2267;48.816;9.230;2023-12-07T04:53:03;4.60;99.90
4509;DHT22;2267;48.816;9.230;2023-12-07T04:55:30;4.60;99.90
4509;DHT22;2267;48.816;9.230;2023-12-07T04:57:57;4.60;99.90
4509;DHT22;2267;48.816;9.230;2023-12-07T05:00:24;4.60;99.90
4509;DHT22;2267;48.816;9.230;2023-12-07T05:02:51;4.60;99.90
4509;DHT22;2267;48.816;9.230;2023-12-07T05:05:18;4.60;99.90
4509;DHT22;2267;48.816;9.230;2023-12-07T05:07:45;4.50;99.90
4509;DHT22;2267;48.816;9.230;2023-12-07T05:10:12;4.50;99.90
4509;DHT22;2267;48.816;9.230;2023-12-07T05:12:40;4.50;99.90
4509;DHT22;2267;48.816;9.230;2023-12-07T05:15:07;4.50;99.90
4509;DHT22;2267;48.816;9.230;2023-12-07T05:17:35;4.50;99.90
4509;DHT22;2267;48.816;9.230;2023-12-07T05:20:02;4.40;99.90
4509;DHT22;2267;48.816;9.230;2023-12-07T05:22:29;4.40;99.90
4509;DHT22;2267;48.816;9.230;2023-12-07T05:24:56;4.40;99.90
4509;DHT22;2267;48.816;9.230;2023-12-07T05:27:23;4.40;99.90
4509;DHT22;2267;48.816;9.230;2023-12-07T05:29:50;4.40;99.90
4509;DHT22;2267;48.816;9.230;2023-12-07T05:32:17;4.40;99.90
4509;DHT22;2267;48.816;9.230;2023-12-07T05:34:44;4.40;99.90
4509;DHT22;2267;48.816;9.230;2023-12-07T05:37:11;4.40;99.90
4509;DHT22;2267;48.816;9.230;2023-12-07T05:39:37;4.30;99.90
4509;DHT22;2267;48.816;9.230;2023-12-07T05:42:05;4.30;99.90
4509;DHT22;2267;48.816;9.230;2023-12-07T05:44:32;4.30;99.90
4509;DHT22;2267;48.816;9.230;2023-12-07T05:46:59;4.30;99.90
4509;DHT22;2267;48.816;9.230;2023-12-07T05:49:26;4.30;99.90
4509;DHT22;2267;48.816;9.230;2023-12-07T05:51:52;4.30;99.90
4509;DHT22;2267;48.816;9.230;2023-12-07T05:54:20;4.30;99.90
4509;DHT22;2267;48.816;9.230;2023-12-07T05:56:50;6.30;99.90
4509;DHT22;2267;48.816;9.230;2023-12-07T05:59:17;4.30;99.90
4509;DHT22;2267;48.816;9.230;2023-12-07T06:01:44;4.20;99.90
4509;DHT22;2267;48.816;9.230;2023-12-07T06:04:11;4.20;99.90
4509;DHT22;2267;48.816;9.230;2023-12-07T06:06:39;4.20;99.90
4509;DHT22;2267;48.816;9.230;2023-12-07T06:09:06;4.20;99.90
4509;DHT22;2267;48.816;9.230;2023-12-07T06:11:34;3.90;99.90
4509;DHT22;2267;48.816;9.230;2023-12-07T06:14:01;4.10;99.90
4509;DHT22;2267;48.816;9.230;2023-12-07T06:16:30;4.10;99.90
4509;DHT22;2267;48.816;9.230;2023-12-07T06:18:57;4.10;99.90
4509;DHT22;2267;48.816;9.230;2023-12-07T06:21:24;4.10;99.90
4509;DHT22;2267;48.816;9.230;2023-12-07T06:23:52;4.00;99.90
4509;DHT22;2267;48.816;9.230;2023-12-07T06:26:19;4.10;99.90
4509;DHT22;2267;48.816;9.230;2023-12-07T06:28:46;4.00;99.90
4509;DHT22;2267;48.816;9.230;2023-12-07T06:31:13;4.00;99.90
4509;DHT22;2267;48.816;9.230;2023-12-07T06:33:47;4.00;99.90
4509;DHT22;2267;48.816;9.230;2023-12-07T06:36:21;4.00;99.90
4509;DHT22;2267;48.816;9.230;2023-12-07T06:38:48;4.00;99.90
4509;DHT22;2267;48.816;9.230;2023-12-07T06:41:15;4.00;99.90
4509;DHT22;2267;48.816;9.230;2023-12-07T06:43:45;3.90;99.90
4509;DHT22;2267;48.816;9.230;2023-12-07T06:46:13;3.90;99.90
4509;DHT22;2267;48.816;9.230;2023-12-07T06:48:41;3.90;99.90
4509;DHT22;2267;48.816;9.230;2023-12-07T06:51:08;3.90;99.90
4509;DHT22;2267;48.816;9.230;2023-12-07T06:53:35;3.90;99.90
4509;DHT22;2267;48.816;9.230;2023-12-07T06:56:02;3.90;99.90
4509;DHT22;2267;48.816;9.230;2023-12-07T06:58:29;3.80;99.90
4509;DHT22;2267;48.816;9.230;2023-12-07T07:00:56;3.80;99.90
4509;DHT22;2267;48.816;9.230;2023-12-07T07:03:24;3.80;99.90
4509;DHT22;2267;48.816;9.230;2023-12-07T07:05:51;3.80;99.90
4509;DHT22;2267;48.816;9.230;2023-12-07T07:08:18;3.80;99.90
4509;DHT22;2267;48.816;9.230;2023-12-07T07:10:45;3.80;99.90
4509;DHT22;2267;48.816;9.230;2023-12-07T07:13:13;3.80;99.90
4509;DHT22;2267;48.816;9.230;2023-12-07T07:15:44;3.80;99.90
4509;DHT22;2267;48.816;9.230;2023-12-07T07:18:11;3.80;99.90
4509;DHT22;2267;48.816;9.230;2023-12-07T07:20:38;3.80;99.90
4509;DHT22;2267;48.816;9.230;2023-12-07T07:23:05;3.80;99.90
4509;DHT22;2267;48.816;9.230;2023-12-07T07:25:32;3.80;99.90
4509;DHT22;2267;48.816;9.230;2023-12-07T07:27:59;3.80;99.90
4509;DHT22;2267;48.816;9.230;2023-12-07T07:30:26;3.80;99.90
4509;DHT22;2267;48.816;9.230;2023-12-07T07:32:53;3.70;99.90
4509;DHT22;2267;48.816;9.230;2023-12-07T07:35:20;3.70;99.90
4509;DHT22;2267;48.816;9.230;2023-12-07T07:37:46;3.70;99.90
4509;DHT22;2267;48.816;9.230;2023-12-07T07:40:13;3.70;99.90
4509;DHT22;2267;48.816;9.230;2023-12-07T07:42:41;3.70;99.90
4509;DHT22;2267;48.816;9.230;2023-12-07T07:45:08;3.70;99.90
4509;DHT22;2267;48.816;9.230;2023-12-07T07:47:36;3.70;99.90
4509;DHT22;2267;48.816;9.230;2023-12-07T07:50:04;3.80;99.90
4509;DHT22;2267;48.816;9.230;2023-12-07T07:52:33;3.70;99.90
4509;DHT22;2267;48.816;9.230;2023-12-07T07:55:01;3.70;99.90
4509;DHT22;2267;48.816;9.230;2023-12-07T07:57:30;3.70;99.90
4509;DHT22;2267;48.816;9.230;2023-12-07T07:59:57;3.70;99.90
4509;DHT22;2267;48.816;9.230;2023-12-07T08:02:24;3.70;99.90
4509;DHT22;2267;48.816;9.230;2023-12-07T08:04:51;3.70;99.90
4509;DHT22;2267;48.816;9.230;2023-12-07T08:07:18;3.70;99.90
4509;DHT22;2267;48.816;9.230;2023-12-07T08:09:45;3.80;99.90
4509;DHT22;2267;48.816;9.230;2023-12-07T08:12:12;3.80;99.90
4509;DHT22;2267;48.816;9.230;2023-12-07T08:14:39;3.80;99.90
4509;DHT22;2267;48.816;9.230;2023-12-07T08:17:06;3.80;99.90
4509;DHT22;2267;48.816;9.230;2023-12-07T08:19:33;3.80;99.90
4509;DHT22;2267;48.816;9.230;2023-12-07T08:22:00;3.80;99.90
4509;DHT22;2267;48.816;9.230;2023-12-07T08:24:27;3.90;99.90
4509;DHT22;2267;48.816;9.230;2023-12-07T08:26:54;3.90;99.90
4509;DHT22;2267;48.816;9.230;2023-12-07T08:29:20;3.90;99.90
4509;DHT22;2267;48.816;9.230;2023-12-07T08:31:47;3.90;99.90
4509;DHT22;2267;48.816;9.230;2023-12-07T08:34:15;4.00;99.90
4509;DHT22;2267;48.816;9.230;2023-12-07T08:36:41;4.00;99.90
4509;DHT22;2267;48.816;9.230;2023-12-07T08:39:08;4.00;99.90
4509;DHT22;2267;48.816;9.230;2023-12-07T08:41:36;4.10;99.90
4509;DHT22;2267;48.816;9.230;2023-12-07T08:44:04;4.10;99.90
4509;DHT22;2267;48.816;9.230;2023-12-07T08:46:32;4.20;99.90
4509;DHT22;2267;48.816;9.230;2023-12-07T08:48:59;4.30;99.90
4509;DHT22;2267;48.816;9.230;2023-12-07T08:51:27;4.30;99.90
4509;DHT22;2267;48.816;9.230;2023-12-07T08:53:54;4.40;99.90
4509;DHT22;2267;48.816;9.230;2023-12-07T08:56:23;4.40;99.90
4509;DHT22;2267;48.816;9.230;2023-12-07T08:58:50;4.50;99.90
4509;DHT22;2267;48.816;9.230;2023-12-07T09:01:17;4.60;99.90
4509;DHT22;2267;48.816;9.230;2023-12-07T09:03:57;4.80;99.90
4509;DHT22;2267;48.816;9.230;2023-12-07T09:06:24;5.00;99.90
4509;DHT22;2267;48.816;9.230;2023-12-07T09:08:52;5.20;99.90
4509;DHT22;2267;48.816;9.230;2023-12-07T09:11:19;5.50;99.90
4509;DHT22;2267;48.816;9.230;2023-12-07T09:13:46;5.80;99.90
4509;DHT22;2267;48.816;9.230;2023-12-07T09:16:13;6.10;99.90
4509;DHT22;2267;48.816;9.230;2023-12-07T09:18:42;6.20;99.90
4509;DHT22;2267;48.816;9.230;2023-12-07T09:21:10;6.40;99.90
4509;DHT22;2267;48.816;9.230;2023-12-07T09:23:37;6.60;99.90
4509;DHT22;2267;48.816;9.230;2023-12-07T09:26:04;6.70;99.90
4509;DHT22;2267;48.816;9.230;2023-12-07T09:28:32;6.90;99.90
4509;DHT22;2267;48.816;9.230;2023-12-07T09:31:02;7.00;99.90
4509;DHT22;2267;48.816;9.230;2023-12-07T09:33:29;7.20;99.90
4509;DHT22;2267;48.816;9.230;2023-12-07T09:35:56;7.30;99.90
4509;DHT22;2267;48.816;9.230;2023-12-07T09:38:23;7.40;99.90
4509;DHT22;2267;48.816;9.230;2023-12-07T09:40:53;7.60;99.90
4509;DHT22;2267;48.816;9.230;2023-12-07T09:43:21;7.60;99.90
4509;DHT22;2267;48.816;9.230;2023-12-07T09:45:48;7.60;99.90
4509;DHT22;2267;48.816;9.230;2023-12-07T09:48:16;7.70;99.90
4509;DHT22;2267;48.816;9.230;2023-12-07T09:50:44;7.70;99.90
4509;DHT22;2267;48.816;9.230;2023-12-07T09:53:11;7.80;99.90
4509;DHT22;2267;48.816;9.230;2023-12-07T09:55:38;7.90;99.90
4509;DHT22;2267;48.816;9.230;2023-12-07T09:58:06;7.90;99.90
4509;DHT22;2267;48.816;9.230;2023-12-07T10:00:36;8.00;99.90
4509;DHT22;2267;48.816;9.230;2023-12-07T10:03:05;8.10;99.90
4509;DHT22;2267;48.816;9.230;2023-12-07T10:05:53;8.30;99.90
4509;DHT22;2267;48.816;9.230;2023-12-07T10:08:32;8.40;99.90
4509;DHT22;2267;48.816;9.230;2023-12-07T10:11:07;8.60;99.90
4509;DHT22;2267;48.816;9.230;2023-12-07T10:13:35;8.60;99.90
4509;DHT22;2267;48.816;9.230;2023-12-07T10:18:37;8.80;99.90
4509;DHT22;2267;48.816;9.230;2023-12-07T10:21:10;8.80;99.90
4509;DHT22;2267;48.816;9.230;2023-12-07T10:23:37;8.90;99.90
4509;DHT22;2267;48.816;9.230;2023-12-07T10:26:06;8.80;99.90
4509;DHT22;2267;48.816;9.230;2023-12-07T10:28:35;8.70;99.90
4509;DHT22;2267;48.816;9.230;2023-12-07T10:31:03;8.80;99.90
4509;DHT22;2267;48.816;9.230;2023-12-07T10:33:34;8.70;99.80
4509;DHT22;2267;48.816;9.230;2023-12-07T10:36:03;8.70;99.90
4509;DHT22;2267;48.816;9.230;2023-12-07T10:38:30;8.70;99.90
4509;DHT22;2267;48.816;9.230;2023-12-07T10:41:05;8.60;99.90
4509;DHT22;2267;48.816;9.230;2023-12-07T10:43:37;8.60;99.90
4509;DHT22;2267;48.816;9.230;2023-12-07T10:46:05;8.50;99.90
4509;DHT22;2267;48.816;9.230;2023-12-07T10:48:32;8.50;99.90
4509;DHT22;2267;48.816;9.230;2023-12-07T10:51:00;8.30;99.50
4509;DHT22;2267;48.816;9.230;2023-12-07T10:53:33;8.30;99.90
4509;DHT22;2267;48.816;9.230;2023-12-07T10:56:04;8.20;99.70
4509;DHT22;2267;48.816;9.230;2023-12-07T10:58:35;8.10;99.90
4509;DHT22;2267;48.816;9.230;2023-12-07T11:01:03;8.10;99.90
4509;DHT22;2267;48.816;9.230;2023-12-07T11:03:31;8.00;99.90
4509;DHT22;2267;48.816;9.230;2023-12-07T11:05:58;8.00;99.90
4509;DHT22;2267;48.816;9.230;2023-12-07T11:08:29;8.00;99.90
4509;DHT22;2267;48.816;9.230;2023-12-07T11:16:35;7.70;99.90
4509;DHT22;2267;48.816;9.230;2023-12-07T11:19:04;7.60;99.90
4509;DHT22;2267;48.816;9.230;2023-12-07T11:21:38;7.50;99.90
4509;DHT22;2267;48.816;9.230;2023-12-07T11:24:06;7.40;99.90
4509;DHT22;2267;48.816;9.230;2023-12-07T11:26:32;7.40;99.90
4509;DHT22;2267;48.816;9.230;2023-12-07T11:28:59;7.40;99.80
4509;DHT22;2267;48.816;9.230;2023-12-07T11:31:27;7.20;99.70
4509;DHT22;2267;48.816;9.230;2023-12-07T11:33:54;7.20;99.40
4509;DHT22;2267;48.816;9.230;2023-12-07T11:36:21;7.20;99.60
4509;DHT22;2267;48.816;9.230;2023-12-07T11:41:51;7.10;99.60
4509;DHT22;2267;48.816;9.230;2023-12-07T11:44:20;7.10;99.70
4509;DHT22;2267;48.816;9.230;2023-12-07T11:46:50;7.10;99.00
4509;DHT22;2267;48.816;9.230;2023-12-07T11:49:18;7.10;98.70
4509;DHT22;2267;48.816;9.230;2023-12-07T11:51:59;7.20;99.10
4509;DHT22;2267;48.816;9.230;2023-12-07T11:54:26;7.30;98.90
4509;DHT22;2267;48.816;9.230;2023-12-07T11:56:55;7.40;98.60
4509;DHT22;2267;48.816;9.230;2023-12-07T11:59:22;7.50;98.20
4509;DHT22;2267;48.816;9.230;2023-12-07T12:02:00;7.60;98.00
4509;DHT22;2267;48.816;9.230;2023-12-07T12:04:29;7.80;97.30
4509;DHT22;2267;48.816;9.230;2023-12-07T12:06:57;8.10;97.30
4509;DHT22;2267;48.816;9.230;2023-12-07T12:09:24;8.30;96.60
4509;DHT22;2267;48.816;9.230;2023-12-07T12:11:58;8.40;96.70
4509;DHT22;2267;48.816;9.230;2023-12-07T12:14:27;8.60;96.60
4509;DHT22;2267;48.816;9.230;2023-12-07T12:16:55;8.80;96.50
4509;DHT22;2267;48.816;9.230;2023-12-07T12:19:25;8.90;96.40
4509;DHT22;2267;48.816;9.230;2023-12-07T12:22:03;9.00;96.10
4509;DHT22;2267;48.816;9.230;2023-12-07T12:24:35;9.10;96.00
4509;DHT22;2267;48.816;9.230;2023-12-07T12:27:03;9.10;94.70
4509;DHT22;2267;48.816;9.230;2023-12-07T12:29:31;9.10;94.10
4509;DHT22;2267;48.816;9.230;2023-12-07T12:32:04;9.10;94.10
4509;DHT22;2267;48.816;9.230;2023-12-07T12:34:33;9.20;94.20
4509;DHT22;2267;48.816;9.230;2023-12-07T12:37:02;9.20;94.30
4509;DHT22;2267;48.816;9.230;2023-12-07T12:39:32;9.30;94.30
4509;DHT22;2267;48.816;9.230;2023-12-07T12:42:01;9.40;94.20
4509;DHT22;2267;48.816;9.230;2023-12-07T12:44:31;9.50;93.90
4509;DHT22;2267;48.816;9.230;2023-12-07T12:47:08;9.70;93.80
4509;DHT22;2267;48.816;9.230;2023-12-07T12:49:40;10.00;93.30
4509;DHT22;2267;48.816;9.230;2023-12-07T12:52:10;10.10;92.60
4509;DHT22;2267;48.816;9.230;2023-12-07T12:54:39;10.20;92.40
4509;DHT22;2267;48.816;9.230;2023-12-07T12:57:06;10.20;91.70
4509;DHT22;2267;48.816;9.230;2023-12-07T12:59:34;10.30;91.80
4509;DHT22;2267;48.816;9.230;2023-12-07T13:02:05;10.40;91.90
4509;DHT22;2267;48.816;9.230;2023-12-07T13:04:32;10.50;92.00
4509;DHT22;2267;48.816;9.230;2023-12-07T13:07:03;10.70;91.90
4509;DHT22;2267;48.816;9.230;2023-12-07T13:09:31;10.80;91.30
4509;DHT22;2267;48.816;9.230;2023-12-07T13:11:58;10.90;90.90
4509;DHT22;2267;48.816;9.230;2023-12-07T13:14:30;11.00;90.30
4509;DHT22;2267;48.816;9.230;2023-12-07T13:16:59;11.10;89.30
4509;DHT22;2267;48.816;9.230;2023-12-07T13:19:25;11.00;87.70
4509;DHT22;2267;48.816;9.230;2023-12-07T13:21:52;10.90;86.00
4509;DHT22;2267;48.816;9.230;2023-12-07T13:24:19;10.80;86.00
4509;DHT22;2267;48.816;9.230;2023-12-07T13:26:46;10.60;85.70
4509;DHT22;2267;48.816;9.230;2023-12-07T13:29:14;10.50;85.30
4509;DHT22;2267;48.816;9.230;2023-12-07T13:31:54;10.40;85.00
4509;DHT22;2267;48.816;9.230;2023-12-07T13:34:21;10.30;85.80
4509;DHT22;2267;48.816;9.230;2023-12-07T13:36:50;10.30;86.20
4509;DHT22;2267;48.816;9.230;2023-12-07T13:39:17;10.20;86.50
4509;DHT22;2267;48.816;9.230;2023-12-07T13:41:57;10.20;87.20
4509;DHT22;2267;48.816;9.230;2023-12-07T13:44:23;10.20;87.50
4509;DHT22;2267;48.816;9.230;2023-12-07T13:46:54;10.20;86.80
4509;DHT22;2267;48.816;9.230;2023-12-07T13:49:23;10.30;87.30
4509;DHT22;2267;48.816;9.230;2023-12-07T13:51:59;10.30;86.50
4509;DHT22;2267;48.816;9.230;2023-12-07T13:54:33;10.10;86.30
4509;DHT22;2267;48.816;9.230;2023-12-07T13:57:19;10.00;86.20
4509;DHT22;2267;48.816;9.230;2023-12-07T13:59:56;9.90;87.60
4509;DHT22;2267;48.816;9.230;2023-12-07T14:02:24;9.80;88.20
4509;DHT22;2267;48.816;9.230;2023-12-07T14:04:52;9.80;87.90
4509;DHT22;2267;48.816;9.230;2023-12-07T14:07:20;9.80;87.90
4509;DHT22;2267;48.816;9.230;2023-12-07T14:09:50;9.80;88.40
4509;DHT22;2267;48.816;9.230;2023-12-07T14:12:25;9.70;88.40
4509;DHT22;2267;48.816;9.230;2023-12-07T14:14:52;9.70;88.80
4509;DHT22;2267;48.816;9.230;2023-12-07T14:17:22;9.70;88.70
4509;DHT22;2267;48.816;9.230;2023-12-07T14:20:06;9.60;87.90
4509;DHT22;2267;48.816;9.230;2023-12-07T14:22:54;9.50;87.10
4509;DHT22;2267;48.816;9.230;2023-12-07T14:25:22;9.40;86.70
4509;DHT22;2267;48.816;9.230;2023-12-07T14:27:49;9.30;86.80
4509;DHT22;2267;48.816;9.230;2023-12-07T14:30:16;9.20;86.90
4509;DHT22;2267;48.816;9.230;2023-12-07T14:32:43;9.10;86.50
4509;DHT22;2267;48.816;9.230;2023-12-07T14:35:15;9.00;85.80
4509;DHT22;2267;48.816;9.230;2023-12-07T14:37:42;8.80;85.00
4509;DHT22;2267;48.816;9.230;2023-12-07T14:40:10;8.80;85.70
4509;DHT22;2267;48.816;9.230;2023-12-07T14:42:37;8.70;84.50
4509;DHT22;2267;48.816;9.230;2023-12-07T14:45:04;8.50;83.90
4509;DHT22;2267;48.816;9.230;2023-12-07T14:47:32;8.40;83.70
4509;DHT22;2267;48.816;9.230;2023-12-07T14:49:59;8.30;83.70
4509;DHT22;2267;48.816;9.230;2023-12-07T14:52:28;8.30;84.10
4509;DHT22;2267;48.816;9.230;2023-12-07T14:54:55;8.20;84.50
4509;DHT22;2267;48.816;9.230;2023-12-07T14:57:22;8.10;84.50
4509;DHT22;2267;48.816;9.230;2023-12-07T14:59:49;8.00;84.80
4509;DHT22;2267;48.816;9.230;2023-12-07T15:02:16;8.00;85.00
4509;DHT22;2267;48.816;9.230;2023-12-07T15:04:43;7.90;85.00
4509;DHT22;2267;48.816;9.230;2023-12-07T15:07:10;7.80;84.80
4509;DHT22;2267;48.816;9.230;2023-12-07T15:09:37;7.80;84.50
4509;DHT22;2267;48.816;9.230;2023-12-07T15:12:04;7.70;84.80
4509;DHT22;2267;48.816;9.230;2023-12-07T15:14:31;7.60;84.80
4509;DHT22;2267;48.816;9.230;2023-12-07T15:17:05;7.60;84.30
4509;DHT22;2267;48.816;9.230;2023-12-07T15:19:34;7.50;84.20
4509;DHT22;2267;48.816;9.230;2023-12-07T15:22:03;7.40;84.10
4509;DHT22;2267;48.816;9.230;2023-12-07T15:24:30;7.40;85.40
4509;DHT22;2267;48.816;9.230;2023-12-07T15:27:05;7.40;85.30
4509;DHT22;2267;48.816;9.230;2023-12-07T15:29:32;7.40;85.20
4509;DHT22;2267;48.816;9.230;2023-12-07T15:32:05;7.30;85.30
4509;DHT22;2267;48.816;9.230;2023-12-07T15:34:32;7.30;85.20
4509;DHT22;2267;48.816;9.230;2023-12-07T15:37:07;7.30;84.90
4509;DHT22;2267;48.816;9.230;2023-12-07T15:39:34;7.20;84.50
4509;DHT22;2267;48.816;9.230;2023-12-07T15:42:01;7.20;84.10
4509;DHT22;2267;48.816;9.230;2023-12-07T15:44:29;7.10;84.10
4509;DHT22;2267;48.816;9.230;2023-12-07T15:46:58;7.10;83.10
4509;DHT22;2267;48.816;9.230;2023-12-07T15:49:25;7.10;84.90
4509;DHT22;2267;48.816;9.230;2023-12-07T15:51:52;7.00;84.70
4509;DHT22;2267;48.816;9.230;2023-12-07T15:54:23;7.00;85.40
4509;DHT22;2267;48.816;9.230;2023-12-07T15:57:04;6.90;85.70
4509;DHT22;2267;48.816;9.230;2023-12-07T15:59:31;6.90;85.80
4509;DHT22;2267;48.816;9.230;2023-12-07T16:01:58;6.90;86.70
4509;DHT22;2267;48.816;9.230;2023-12-07T16:04:25;6.90;86.70
4509;DHT22;2267;48.816;9.230;2023-12-07T16:07:01;6.80;86.90
4509;DHT22;2267;48.816;9.230;2023-12-07T16:09:31;6.80;86.70
4509;DHT22;2267;48.816;9.230;2023-12-07T16:11:59;6.80;87.70
4509;DHT22;2267;48.816;9.230;2023-12-07T16:14:26;6.70;87.20
4509;DHT22;2267;48.816;9.230;2023-12-07T16:16:57;6.70;87.60
4509;DHT22;2267;48.816;9.230;2023-12-07T16:19:26;6.70;87.70
4509;DHT22;2267;48.816;9.230;2023-12-07T16:21:54;6.70;87.70
4509;DHT22;2267;48.816;9.230;2023-12-07T16:24:21;6.70;87.40
4509;DHT22;2267;48.816;9.230;2023-12-07T16:26:48;6.60;87.50
4509;DHT22;2267;48.816;9.230;2023-12-07T16:29:16;6.60;88.10
4509;DHT22;2267;48.816;9.230;2023-12-07T16:31:46;6.60;88.30
4509;DHT22;2267;48.816;9.230;2023-12-07T16:34:13;6.60;88.40
4509;DHT22;2267;48.816;9.230;2023-12-07T16:36:40;6.50;88.40
4509;DHT22;2267;48.816;9.230;2023-12-07T16:39:07;6.50;89.30
4509;DHT22;2267;48.816;9.230;2023-12-07T16:41:34;6.40;89.90
4509;DHT22;2267;48.816;9.230;2023-12-07T16:44:13;6.40;90.10
4509;DHT22;2267;48.816;9.230;2023-12-07T16:46:42;6.30;90.40
4509;DHT22;2267;48.816;9.230;2023-12-07T16:49:12;6.30;90.80
4509;DHT22;2267;48.816;9.230;2023-12-07T16:51:39;6.30;91.00
4509;DHT22;2267;48.816;9.230;2023-12-07T16:54:06;6.20;91.00
4509;DHT22;2267;48.816;9.230;2023-12-07T16:56:33;6.20;91.00